Time;durP1;ratioP1;P1;durP2;ratioP2;P2;SDS_P1;SDS_P2;PMS_P1;PMS_P2;Temp;Humidity;BMP_temperature;BMP_pressure;BME280_temperature;BME280_humidity;BME280_pressure;Samples;Min_cycle;Max_cycle;Signal;HPM_P1;HPM_P2
2022/06/28 00:04:57;;;;;;;1.45;0.50;;;21.30;42.20;;;;;;20922927;28;20053;-68
2022/06/28 00:25:19;;;;;;;1.98;0.38;;;21.10;42.50;;;;;;20921232;28;20405;-68
2022/06/28 00:35:21;;;;;;;0.47;0.25;;;20.90;42.80;;;;;;20920661;28;20478;-69
2022/06/28 00:45:23;;;;;;;1.70;0.60;;;20.70;43.30;;;;;;20919669;28;20076;-68
2022/06/28 00:55:25;;;;;;;0.50;0.20;;;20.50;43.60;;;;;;20920214;28;20041;-68
2022/06/28 01:05:27;;;;;;;0.90;0.40;;;20.50;43.60;;;;;;20920436;28;20536;-67
2022/06/28 01:15:31;;;;;;;0.73;0.40;;;20.40;43.70;;;;;;20923704;28;20041;-70
2022/06/28 01:25:34;;;;;;;1.98;0.38;;;20.30;43.90;;;;;;20917854;28;20052;-67
2022/06/28 01:35:37;;;;;;;2.80;0.50;;;20.20;44.20;;;;;;20916425;28;20068;-67
2022/06/28 01:45:41;;;;;;;0.90;0.30;;;20.10;44.30;;;;;;20915490;28;20077;-67
2022/06/28 01:55:44;;;;;;;1.65;0.43;;;20.00;44.60;;;;;;20915827;28;20510;-67
2022/06/28 02:05:49;;;;;;;1.92;0.38;;;19.90;44.70;;;;;;20915264;28;20057;-67
2022/06/28 02:15:52;;;;;;;1.73;0.40;;;19.80;45.00;;;;;;20913513;28;20072;-67
2022/06/28 02:25:56;;;;;;;1.67;0.57;;;19.70;45.30;;;;;;20911296;28;20081;-67
2022/06/28 02:46:21;;;;;;;3.20;0.50;;;20.50;44.20;;;;;;20911399;28;20095;-65
2022/06/28 02:56:24;;;;;;;2.00;0.40;;;19.60;45.50;;;;;;20913202;28;20073;-67
2022/06/28 03:06:26;;;;;;;2.10;0.75;;;19.90;45.50;;;;;;20912551;28;20433;-66
2022/06/28 03:16:28;;;;;;;1.25;0.50;;;19.40;46.30;;;;;;20912299;28;20508;-67
2022/06/28 03:26:30;;;;;;;1.85;0.43;;;19.30;46.40;;;;;;20911361;28;20053;-69
2022/06/28 03:36:32;;;;;;;0.88;0.40;;;19.20;46.60;;;;;;20923108;28;20082;-67
2022/06/28 03:46:34;;;;;;;2.58;0.75;;;19.10;46.90;;;;;;20925318;28;20091;-67
2022/06/28 03:56:36;;;;;;;1.10;0.30;;;19.10;46.90;;;;;;20924393;28;20041;-67
2022/06/28 04:06:38;;;;;;;1.13;0.45;;;18.90;47.30;;;;;;20923071;28;20045;-68
2022/06/28 04:16:41;;;;;;;3.35;0.77;;;18.80;47.50;;;;;;20921722;28;20045;-66
2022/06/28 04:26:44;;;;;;;1.02;0.50;;;18.90;47.50;;;;;;20921601;28;20409;-67
2022/06/28 04:36:45;;;;;;;1.52;0.50;;;18.90;47.60;;;;;;20921648;28;20049;-69
2022/06/28 04:46:47;;;;;;;2.78;0.57;;;18.80;47.70;;;;;;20919568;28;20136;-69
2022/06/28 04:56:49;;;;;;;2.95;0.70;;;18.90;47.70;;;;;;20918008;28;20049;-63
2022/06/28 05:06:51;;;;;;;3.83;0.68;;;18.80;47.90;;;;;;20915874;28;20132;-62
2022/06/28 05:16:53;;;;;;;5.22;1.17;;;18.80;48.20;;;;;;20917982;28;20045;-63
2022/06/28 05:26:55;;;;;;;2.80;1.00;;;18.70;49.00;;;;;;20917968;28;20059;-64
2022/06/28 05:36:57;;;;;;;2.70;0.90;;;18.70;49.20;;;;;;20915434;28;20144;-63
2022/06/28 05:46:59;;;;;;;8.18;1.00;;;18.60;49.40;;;;;;20915380;28;20064;-64
2022/06/28 05:57:02;;;;;;;4.93;1.50;;;18.70;49.30;;;;;;20915263;28;20095;-62
2022/06/28 06:07:03;;;;;;;4.70;1.15;;;18.80;49.30;;;;;;20916025;28;20053;-63
2022/06/28 06:17:05;;;;;;;3.95;1.17;;;19.10;48.90;;;;;;20914376;28;20103;-63
2022/06/28 06:27:07;;;;;;;2.00;0.98;;;19.30;48.50;;;;;;20912919;28;20065;-64
2022/06/28 06:37:09;;;;;;;5.85;0.90;;;19.50;48.10;;;;;;20913254;28;20052;-63
2022/06/28 06:47:11;;;;;;;1.60;0.80;;;20.80;45.70;;;;;;20912217;28;20088;-62
2022/06/28 06:57:14;;;;;;;6.75;1.00;;;20.50;46.30;;;;;;20911495;28;20077;-63
2022/06/28 07:07:15;;;;;;;2.13;0.90;;;22.20;43.30;;;;;;20920401;28;20084;-62
2022/06/28 07:17:17;;;;;;;5.25;0.90;;;;;;;;;;20926620;28;20055;-63
2022/06/28 07:27:19;;;;;;;2.65;1.10;;;23.60;41.00;;;;;;20927081;28;20061;-64
2022/06/28 07:37:22;;;;;;;6.20;1.10;;;;;;;;;;20925503;28;20045;-66
2022/06/28 07:47:24;;;;;;;7.07;1.20;;;24.30;40.00;;;;;;20924119;28;20508;-70
2022/06/28 07:57:26;;;;;;;4.97;1.00;;;23.90;40.90;;;;;;20929802;28;20060;-69
2022/06/28 08:07:27;;;;;;;8.05;1.27;;;24.50;40.00;;;;;;20924366;28;20059;-64
2022/06/28 08:17:29;;;;;;;5.15;1.17;;;24.70;39.90;;;;;;20920781;28;20049;-63
2022/06/28 08:27:31;;;;;;;10.93;1.90;;;25.40;39.60;;;;;;20920442;28;20115;-64
2022/06/28 08:37:34;;;;;;;4.82;1.48;;;25.80;40.20;;;;;;20919754;28;20053;-63
2022/06/28 08:47:39;;;;;;;6.85;1.50;;;26.10;41.00;;;;;;20917440;28;20052;-60
2022/06/28 08:57:41;;;;;;;4.72;1.40;;;26.90;39.60;;;;;;20920042;28;20051;-63
2022/06/28 09:07:44;;;;;;;8.80;1.95;;;26.30;40.80;;;;;;20916716;28;20053;-58
2022/06/28 09:17:52;;;;;;;4.03;1.35;;;26.60;40.80;;;;;;20917344;28;20489;-57
2022/06/28 09:27:59;;;;;;;6.03;1.75;;;26.70;40.80;;;;;;20917655;28;20057;-64
2022/06/28 09:38:01;;;;;;;4.82;1.55;;;27.30;39.60;;;;;;20919350;28;20446;-57
2022/06/28 09:48:05;;;;;;;2.83;1.30;;;26.70;40.50;;;;;;20879597;28;20091;-64
2022/06/28 09:58:07;;;;;;;9.65;1.77;;;26.90;40.30;;;;;;20831794;28;20130;-73
2022/06/28 10:08:10;;;;;;;2.63;1.25;;;26.80;40.30;;;;;;20830216;28;20057;-59
2022/06/28 10:18:16;;;;;;;4.88;1.42;;;26.90;40.00;;;;;;20830667;28;20041;-58
2022/06/28 10:28:37;;;;;;;5.80;1.42;;;27.20;39.80;;;;;;20829418;28;20132;-56
2022/06/28 10:39:08;;;;;;;5.15;1.52;;;27.60;38.00;;;;;;20847390;28;20045;-62
2022/06/28 10:49:12;;;;;;;5.97;1.23;;;27.80;36.90;;;;;;20911116;28;20052;-54
2022/06/28 10:59:16;;;;;;;4.53;1.15;;;27.90;36.40;;;;;;20912006;28;20052;-65
2022/06/28 11:09:42;;;;;;;5.35;1.23;;;28.30;34.30;;;;;;20911304;28;20425;-62
2022/06/28 11:19:53;;;;;;;7.60;1.53;;;28.30;33.10;;;;;;20906188;28;20475;-57
2022/06/28 11:30:01;;;;;;;4.55;1.30;;;28.30;33.30;;;;;;20911640;28;20052;-59
2022/06/28 11:40:04;;;;;;;4.40;1.30;;;28.20;32.70;;;;;;20910716;28;20060;-61
2022/06/28 11:50:18;;;;;;;5.30;1.35;;;28.00;32.80;;;;;;20911374;28;20057;-59
2022/06/28 12:00:22;;;;;;;4.80;1.60;;;28.00;32.80;;;;;;20924238;28;20191;-62
2022/06/28 12:10:32;;;;;;;3.63;1.30;;;28.40;31.70;;;;;;20920699;28;20052;-61
2022/06/28 12:20:35;;;;;;;20.83;1.80;;;28.70;30.30;;;;;;20924691;28;20544;-62
2022/06/28 12:30:37;;;;;;;8.30;1.10;;;28.30;30.20;;;;;;20922442;28;20048;-63
2022/06/28 12:40:39;;;;;;;4.32;1.00;;;28.70;29.40;;;;;;20922954;28;20495;-67
2022/06/28 12:50:41;;;;;;;4.43;1.35;;;28.60;29.50;;;;;;20921093;28;20064;-61
2022/06/28 13:00:44;;;;;;;3.47;0.95;;;29.10;28.60;;;;;;20920592;28;20051;-64
2022/06/28 13:10:46;;;;;;;5.95;1.55;;;29.10;28.10;;;;;;20919203;28;20106;-61
2022/06/28 13:20:49;;;;;;;3.20;0.85;;;29.50;27.40;;;;;;20919575;28;20053;-61
2022/06/28 13:30:50;;;;;;;5.00;1.48;;;29.60;27.00;;;;;;20916995;28;20045;-63
2022/06/28 13:40:55;;;;;;;2.55;1.23;;;29.50;27.10;;;;;;20916120;28;20045;-63
2022/06/28 13:50:57;;;;;;;2.63;1.13;;;29.60;27.10;;;;;;20915464;28;20489;-60
2022/06/28 14:01:04;;;;;;;4.88;2.55;;;29.90;26.30;;;;;;20914577;28;20464;-62
2022/06/28 14:11:05;;;;;;;6.93;1.88;;;29.90;26.60;;;;;;20914552;28;20101;-66
2022/06/28 14:21:07;;;;;;;5.18;2.35;;;29.80;26.50;;;;;;20911083;28;20409;-67
2022/06/28 14:31:08;;;;;;;3.97;1.20;;;30.00;26.40;;;;;;20915191;28;20052;-67
2022/06/28 14:41:10;;;;;;;3.35;0.93;;;30.10;26.30;;;;;;20917119;28;20059;-61
2022/06/28 14:51:12;;;;;;;3.58;1.25;;;30.10;25.90;;;;;;20914171;28;20049;-67
2022/06/28 15:01:13;;;;;;;4.70;1.50;;;30.40;25.40;;;;;;20912957;28;20076;-65
2022/06/28 15:11:16;;;;;;;3.17;0.90;;;30.40;25.50;;;;;;20913844;28;20053;-68
2022/06/28 15:31:38;;;;;;;1.90;0.90;;;30.60;24.90;;;;;;20926998;28;20053;-61
2022/06/28 15:41:39;;;;;;;4.13;1.63;;;30.50;24.50;;;;;;20925839;28;20056;-68
2022/06/28 15:51:41;;;;;;;4.80;2.55;;;30.60;24.30;;;;;;20918279;28;20049;-75
2022/06/28 16:01:43;;;;;;;4.50;1.17;;;30.70;24.10;;;;;;20915815;28;20051;-76
2022/06/28 16:11:45;;;;;;;1.90;1.02;;;30.70;23.20;;;;;;20926224;28;20131;-66
2022/06/28 16:21:46;;;;;;;3.33;1.05;;;30.60;23.00;;;;;;20925334;28;20520;-72
2022/06/28 16:31:48;;;;;;;1.58;0.85;;;30.70;22.10;;;;;;20923668;28;20049;-71
2022/06/28 16:41:49;;;;;;;2.95;1.10;;;30.80;21.90;;;;;;20922675;28;20083;-72
2022/06/28 16:51:53;;;;;;;5.35;1.20;;;30.90;21.30;;;;;;20921759;28;20102;-71
2022/06/28 17:01:55;;;;;;;1.98;0.75;;;30.90;21.40;;;;;;20930040;28;20579;-76
2022/06/28 17:11:56;;;;;;;3.45;0.75;;;30.80;21.00;;;;;;20933797;28;20079;-70
2022/06/28 17:21:58;;;;;;;2.45;1.00;;;31.00;20.50;;;;;;20921783;28;20045;-72
2022/06/28 17:32:01;;;;;;;2.08;1.05;;;30.90;19.50;;;;;;20919490;28;20053;-65
2022/06/28 17:42:05;;;;;;;5.00;2.13;;;30.70;19.70;;;;;;20905559;28;20136;-63
2022/06/28 17:52:07;;;;;;;2.17;0.65;;;30.70;19.60;;;;;;20864967;28;20053;-62
2022/06/28 18:02:08;;;;;;;2.05;1.00;;;30.60;19.20;;;;;;20831748;28;20092;-62
2022/06/28 18:12:11;;;;;;;2.50;0.90;;;30.50;19.30;;;;;;20832044;28;20045;-63
2022/06/28 18:22:13;;;;;;;6.65;1.83;;;30.40;19.60;;;;;;20830124;28;20045;-63
2022/06/28 18:32:16;;;;;;;3.00;1.10;;;30.40;19.50;;;;;;20830157;28;20111;-62
2022/06/28 18:42:18;;;;;;;3.00;0.90;;;30.20;19.70;;;;;;20830041;28;20049;-63
2022/06/28 18:52:20;;;;;;;3.47;1.58;;;30.00;19.80;;;;;;20829618;28;20058;-63
2022/06/28 19:02:22;;;;;;;4.07;1.20;;;29.90;19.60;;;;;;20837182;28;20389;-62
2022/06/28 19:12:23;;;;;;;3.08;1.25;;;29.80;19.90;;;;;;20843549;28;20057;-61
2022/06/28 19:22:26;;;;;;;3.63;1.98;;;29.70;20.30;;;;;;20844179;28;20529;-63
2022/06/28 19:32:28;;;;;;;2.05;1.40;;;29.50;20.90;;;;;;20843829;28;20050;-62
2022/06/28 19:42:30;;;;;;;5.20;2.17;;;;;;;;;;20843910;28;20498;-62
2022/06/28 19:52:33;;;;;;;3.33;2.03;;;;;;;;;;20843375;28;20242;-62
2022/06/28 20:02:37;;;;;;;6.25;1.63;;;;;;;;;;20878115;28;20067;-61
2022/06/28 20:12:38;;;;;;;6.80;2.17;;;29.50;22.00;;;;;;20922441;28;20110;-62
2022/06/28 20:22:40;;;;;;;4.88;2.33;;;28.30;23.20;;;;;;20921719;28;20080;-61
2022/06/28 20:32:42;;;;;;;4.47;2.75;;;28.00;24.00;;;;;;20920621;28;20060;-64
2022/06/28 20:42:45;;;;;;;7.13;3.03;;;27.70;24.70;;;;;;20921474;28;20064;-62
2022/06/28 20:52:47;;;;;;;6.82;3.15;;;27.60;25.10;;;;;;20919741;28;20140;-62
2022/06/28 21:02:49;;;;;;;19.17;8.10;;;27.40;25.00;;;;;;20921763;28;20056;-62
2022/06/28 21:12:51;;;;;;;46.97;20.65;;;27.30;25.20;;;;;;20920475;28;20044;-63
2022/06/28 21:22:53;;;;;;;51.28;22.45;;;27.30;25.30;;;;;;20917066;28;20045;-63
2022/06/28 21:32:55;;;;;;;38.88;17.67;;;27.10;25.30;;;;;;20917828;28;20138;-62
2022/06/28 21:42:58;;;;;;;39.70;17.45;;;26.90;25.90;;;;;;20922438;28;20072;-64
2022/06/28 21:53:00;;;;;;;47.53;21.05;;;26.80;26.50;;;;;;20918020;28;20482;-63
2022/06/28 22:03:02;;;;;;;28.15;14.85;;;26.60;26.50;;;;;;20915691;28;20053;-65
2022/06/28 22:13:05;;;;;;;20.42;11.35;;;26.40;26.80;;;;;;20916173;28;20124;-64
2022/06/28 22:23:07;;;;;;;16.83;7.40;;;26.20;26.90;;;;;;20914117;28;20056;-62
2022/06/28 22:33:12;;;;;;;18.02;8.48;;;26.10;27.10;;;;;;20911744;28;20053;-62
2022/06/28 22:43:14;;;;;;;14.45;7.60;;;25.90;27.30;;;;;;20911706;28;20045;-61
2022/06/28 22:53:15;;;;;;;5.03;2.85;;;25.90;27.60;;;;;;20911867;28;20524;-61
2022/06/28 23:03:17;;;;;;;10.18;3.00;;;25.90;27.60;;;;;;20911053;28;20048;-61
2022/06/28 23:13:19;;;;;;;11.05;3.25;;;25.90;27.60;;;;;;20911629;28;20049;-62
2022/06/28 23:23:21;;;;;;;9.68;5.05;;;25.80;27.70;;;;;;20910508;28;20060;-61
2022/06/28 23:33:23;;;;;;;9.30;4.57;;;25.70;28.50;;;;;;20910213;28;20060;-61
2022/06/28 23:43:25;;;;;;;10.65;5.15;;;25.30;29.20;;;;;;20909529;28;20091;-62
2022/06/28 23:53:27;;;;;;;9.77;3.13;;;25.20;29.50;;;;;;20924567;28;20413;-62
